sensor_id;sensor_type;location;lat;lon;timestamp;pressure;altitude;pressure_sealevel;temperature;humidity
13695;BME280;6919;52.344;14.518;2022-08-19T00:01:58;100009.50;;;22.42;100.00
13695;BME280;6919;52.344;14.518;2022-08-19T00:04:31;100000.50;;;22.41;100.00
13695;BME280;6919;52.344;14.518;2022-08-19T00:07:00;100004.88;;;22.42;100.00
13695;BME280;6919;52.344;14.518;2022-08-19T00:09:29;100000.00;;;22.44;100.00
13695;BME280;6919;52.344;14.518;2022-08-19T00:11:58;99992.44;;;22.35;100.00
13695;BME280;6919;52.344;14.518;2022-08-19T00:14:29;99996.00;;;22.35;100.00
13695;BME280;6919;52.344;14.518;2022-08-19T00:16:59;99997.16;;;22.39;100.00
13695;BME280;6919;52.344;14.518;2022-08-19T00:19:28;99997.28;;;22.44;100.00
13695;BME280;6919;52.344;14.518;2022-08-19T00:21:56;100011.91;;;22.50;100.00
13695;BME280;6919;52.344;14.518;2022-08-19T00:24:26;99995.94;;;22.47;100.00
13695;BME280;6919;52.344;14.518;2022-08-19T00:26:56;100005.84;;;22.64;100.00
13695;BME280;6919;52.344;14.518;2022-08-19T00:29:45;100004.50;;;22.50;100.00
13695;BME280;6919;52.344;14.518;2022-08-19T00:32:19;99984.19;;;22.46;100.00
13695;BME280;6919;52.344;14.518;2022-08-19T00:34:47;99995.66;;;22.60;100.00
13695;BME280;6919;52.344;14.518;2022-08-19T00:37:15;99991.44;;;22.52;100.00
13695;BME280;6919;52.344;14.518;2022-08-19T00:39:44;100004.38;;;22.57;100.00
13695;BME280;6919;52.344;14.518;2022-08-19T00:42:15;100002.38;;;22.52;100.00
13695;BME280;6919;52.344;14.518;2022-08-19T00:44:44;99999.88;;;22.51;100.00
13695;BME280;6919;52.344;14.518;2022-08-19T00:47:13;100006.66;;;22.48;100.00
13695;BME280;6919;52.344;14.518;2022-08-19T00:49:45;99997.63;;;22.48;100.00
13695;BME280;6919;52.344;14.518;2022-08-19T00:52:23;100006.44;;;22.50;100.00
13695;BME280;6919;52.344;14.518;2022-08-19T00:54:54;100003.72;;;22.38;100.00
13695;BME280;6919;52.344;14.518;2022-08-19T00:57:28;100008.88;;;22.51;100.00
13695;BME280;6919;52.344;14.518;2022-08-19T01:00:00;100016.53;;;22.49;100.00
13695;BME280;6919;52.344;14.518;2022-08-19T01:02:32;100004.28;;;22.40;100.00
13695;BME280;6919;52.344;14.518;2022-08-19T01:05:05;100011.13;;;22.54;100.00
13695;BME280;6919;52.344;14.518;2022-08-19T01:07:35;100016.59;;;22.54;100.00
13695;BME280;6919;52.344;14.518;2022-08-19T01:10:09;100012.56;;;22.57;100.00
13695;BME280;6919;52.344;14.518;2022-08-19T01:12:39;100005.09;;;22.52;100.00
13695;BME280;6919;52.344;14.518;2022-08-19T01:15:12;100008.16;;;22.56;100.00
13695;BME280;6919;52.344;14.518;2022-08-19T01:17:42;99998.09;;;22.45;100.00
13695;BME280;6919;52.344;14.518;2022-08-19T01:20:15;100004.63;;;22.44;100.00
13695;BME280;6919;52.344;14.518;2022-08-19T01:22:49;100009.25;;;22.43;100.00
13695;BME280;6919;52.344;14.518;2022-08-19T01:25:24;99997.38;;;22.49;100.00
13695;BME280;6919;52.344;14.518;2022-08-19T01:27:55;99995.22;;;22.51;100.00
13695;BME280;6919;52.344;14.518;2022-08-19T01:30:36;99996.84;;;22.36;100.00
13695;BME280;6919;52.344;14.518;2022-08-19T01:33:04;100000.75;;;22.40;100.00
13695;BME280;6919;52.344;14.518;2022-08-19T01:35:35;100010.31;;;22.26;100.00
13695;BME280;6919;52.344;14.518;2022-08-19T01:38:09;100004.94;;;22.31;100.00
13695;BME280;6919;52.344;14.518;2022-08-19T01:40:39;100002.63;;;22.39;100.00
13695;BME280;6919;52.344;14.518;2022-08-19T01:43:08;99991.75;;;22.28;100.00
13695;BME280;6919;52.344;14.518;2022-08-19T01:45:37;99985.38;;;22.22;100.00
13695;BME280;6919;52.344;14.518;2022-08-19T01:48:08;99995.38;;;22.17;100.00
13695;BME280;6919;52.344;14.518;2022-08-19T01:50:36;99984.13;;;22.13;100.00
13695;BME280;6919;52.344;14.518;2022-08-19T01:53:11;99977.84;;;22.01;100.00
13695;BME280;6919;52.344;14.518;2022-08-19T01:55:42;99966.84;;;21.96;100.00
13695;BME280;6919;52.344;14.518;2022-08-19T01:58:15;99978.16;;;21.88;100.00
13695;BME280;6919;52.344;14.518;2022-08-19T02:00:47;99976.84;;;21.91;100.00
13695;BME280;6919;52.344;14.518;2022-08-19T02:03:16;99975.66;;;21.87;100.00
13695;BME280;6919;52.344;14.518;2022-08-19T02:05:44;99978.63;;;21.85;100.00
13695;BME280;6919;52.344;14.518;2022-08-19T02:08:14;99985.66;;;21.81;100.00
13695;BME280;6919;52.344;14.518;2022-08-19T02:10:43;99999.19;;;21.76;100.00
13695;BME280;6919;52.344;14.518;2022-08-19T02:13:13;99999.78;;;21.78;100.00
13695;BME280;6919;52.344;14.518;2022-08-19T02:15:47;99988.75;;;21.73;100.00
13695;BME280;6919;52.344;14.518;2022-08-19T02:18:15;99996.22;;;21.78;100.00
13695;BME280;6919;52.344;14.518;2022-08-19T02:20:44;100007.13;;;21.78;100.00
13695;BME280;6919;52.344;14.518;2022-08-19T02:23:16;99996.69;;;21.75;100.00
13695;BME280;6919;52.344;14.518;2022-08-19T02:25:47;100006.78;;;21.74;100.00
13695;BME280;6919;52.344;14.518;2022-08-19T02:28:16;100005.72;;;21.75;100.00
13695;BME280;6919;52.344;14.518;2022-08-19T02:30:47;100013.06;;;21.75;100.00
13695;BME280;6919;52.344;14.518;2022-08-19T02:33:16;99993.13;;;21.63;100.00
13695;BME280;6919;52.344;14.518;2022-08-19T02:35:45;100011.03;;;21.70;100.00
13695;BME280;6919;52.344;14.518;2022-08-19T02:38:15;100001.03;;;21.87;100.00
13695;BME280;6919;52.344;14.518;2022-08-19T02:40:55;100002.59;;;21.83;100.00
13695;BME280;6919;52.344;14.518;2022-08-19T02:43:25;100013.44;;;21.78;100.00
13695;BME280;6919;52.344;14.518;2022-08-19T02:45:54;99997.41;;;21.70;100.00
13695;BME280;6919;52.344;14.518;2022-08-19T02:48:25;99991.72;;;21.72;100.00
13695;BME280;6919;52.344;14.518;2022-08-19T02:50:53;99979.25;;;21.76;100.00
13695;BME280;6919;52.344;14.518;2022-08-19T02:53:27;99949.03;;;21.54;100.00
13695;BME280;6919;52.344;14.518;2022-08-19T02:55:56;99934.22;;;21.50;100.00
13695;BME280;6919;52.344;14.518;2022-08-19T02:58:24;99937.78;;;21.39;100.00
13695;BME280;6919;52.344;14.518;2022-08-19T03:00:56;99931.03;;;21.30;100.00
13695;BME280;6919;52.344;14.518;2022-08-19T03:03:25;99941.69;;;21.43;100.00
13695;BME280;6919;52.344;14.518;2022-08-19T03:06:06;99940.63;;;21.44;100.00
13695;BME280;6919;52.344;14.518;2022-08-19T03:08:37;99945.28;;;21.32;100.00
13695;BME280;6919;52.344;14.518;2022-08-19T03:11:06;99952.84;;;21.30;100.00
13695;BME280;6919;52.344;14.518;2022-08-19T03:13:39;99964.84;;;21.41;100.00
13695;BME280;6919;52.344;14.518;2022-08-19T03:16:11;99965.41;;;21.43;100.00
13695;BME280;6919;52.344;14.518;2022-08-19T03:18:39;99953.38;;;21.78;100.00
13695;BME280;6919;52.344;14.518;2022-08-19T03:21:08;99953.38;;;21.78;100.00
13695;BME280;6919;52.344;14.518;2022-08-19T03:23:39;99958.47;;;21.75;100.00
13695;BME280;6919;52.344;14.518;2022-08-19T03:26:08;99963.59;;;21.83;100.00
13695;BME280;6919;52.344;14.518;2022-08-19T03:28:43;99966.09;;;21.73;100.00
13695;BME280;6919;52.344;14.518;2022-08-19T03:31:25;99967.84;;;21.79;100.00
13695;BME280;6919;52.344;14.518;2022-08-19T03:34:14;99969.28;;;21.70;100.00
13695;BME280;6919;52.344;14.518;2022-08-19T03:36:44;99964.28;;;21.67;100.00
13695;BME280;6919;52.344;14.518;2022-08-19T03:39:15;99952.91;;;21.70;100.00
13695;BME280;6919;52.344;14.518;2022-08-19T03:41:46;99956.59;;;21.64;100.00
13695;BME280;6919;52.344;14.518;2022-08-19T03:44:35;99950.56;;;21.50;100.00
13695;BME280;6919;52.344;14.518;2022-08-19T03:47:05;99966.81;;;21.57;100.00
13695;BME280;6919;52.344;14.518;2022-08-19T03:49:33;99969.91;;;21.60;100.00
13695;BME280;6919;52.344;14.518;2022-08-19T03:52:04;99979.75;;;21.50;100.00
13695;BME280;6919;52.344;14.518;2022-08-19T03:54:36;99977.25;;;21.60;100.00
13695;BME280;6919;52.344;14.518;2022-08-19T03:57:06;99980.97;;;21.42;100.00
13695;BME280;6919;52.344;14.518;2022-08-19T03:59:37;99983.19;;;21.45;100.00
13695;BME280;6919;52.344;14.518;2022-08-19T04:02:10;99980.47;;;21.45;100.00
13695;BME280;6919;52.344;14.518;2022-08-19T04:04:41;99974.19;;;21.45;100.00
13695;BME280;6919;52.344;14.518;2022-08-19T04:07:13;99981.06;;;21.47;100.00
13695;BME280;6919;52.344;14.518;2022-08-19T04:09:44;99973.34;;;21.44;100.00
13695;BME280;6919;52.344;14.518;2022-08-19T04:12:12;99960.78;;;21.32;100.00
13695;BME280;6919;52.344;14.518;2022-08-19T04:14:41;99968.38;;;21.41;100.00
13695;BME280;6919;52.344;14.518;2022-08-19T04:17:09;99968.13;;;21.54;100.00
13695;BME280;6919;52.344;14.518;2022-08-19T04:19:40;99983.31;;;21.50;100.00
13695;BME280;6919;52.344;14.518;2022-08-19T04:22:09;99987.69;;;21.51;100.00
13695;BME280;6919;52.344;14.518;2022-08-19T04:24:38;99994.31;;;21.67;100.00
13695;BME280;6919;52.344;14.518;2022-08-19T04:27:08;99999.06;;;21.71;100.00
13695;BME280;6919;52.344;14.518;2022-08-19T04:29:36;100018.78;;;21.62;100.00
13695;BME280;6919;52.344;14.518;2022-08-19T04:32:06;100017.31;;;21.71;100.00
13695;BME280;6919;52.344;14.518;2022-08-19T04:34:37;100015.06;;;21.68;100.00
13695;BME280;6919;52.344;14.518;2022-08-19T04:37:26;100006.78;;;21.74;100.00
13695;BME280;6919;52.344;14.518;2022-08-19T04:40:05;100013.78;;;21.70;100.00
13695;BME280;6919;52.344;14.518;2022-08-19T04:42:52;100005.00;;;21.68;100.00
13695;BME280;6919;52.344;14.518;2022-08-19T04:45:21;100010.22;;;21.70;100.00
13695;BME280;6919;52.344;14.518;2022-08-19T04:47:49;100012.47;;;21.84;100.00
13695;BME280;6919;52.344;14.518;2022-08-19T04:50:43;100018.63;;;21.91;100.00
13695;BME280;6919;52.344;14.518;2022-08-19T04:53:11;100015.53;;;21.88;100.00
13695;BME280;6919;52.344;14.518;2022-08-19T04:55:41;100006.84;;;22.02;100.00
13695;BME280;6919;52.344;14.518;2022-08-19T04:58:11;100007.28;;;22.11;100.00
13695;BME280;6919;52.344;14.518;2022-08-19T05:00:40;100004.47;;;21.94;100.00
13695;BME280;6919;52.344;14.518;2022-08-19T05:03:08;100002.56;;;22.06;100.00
13695;BME280;6919;52.344;14.518;2022-08-19T05:05:40;99998.66;;;22.02;100.00
13695;BME280;6919;52.344;14.518;2022-08-19T05:08:12;99995.53;;;22.10;100.00
13695;BME280;6919;52.344;14.518;2022-08-19T05:10:41;99999.66;;;22.13;100.00
13695;BME280;6919;52.344;14.518;2022-08-19T05:13:10;100007.28;;;22.11;100.00
13695;BME280;6919;52.344;14.518;2022-08-19T05:15:39;100005.31;;;22.23;100.00
13695;BME280;6919;52.344;14.518;2022-08-19T05:18:07;99995.53;;;22.10;100.00
13695;BME280;6919;52.344;14.518;2022-08-19T05:20:52;100003.22;;;22.13;100.00
13695;BME280;6919;52.344;14.518;2022-08-19T05:23:38;100012.84;;;22.16;100.00
13695;BME280;6919;52.344;14.518;2022-08-19T05:26:07;99996.59;;;22.09;100.00
13695;BME280;6919;52.344;14.518;2022-08-19T05:28:39;99992.88;;;22.15;100.00
13695;BME280;6919;52.344;14.518;2022-08-19T05:31:07;99998.81;;;22.12;100.00
13695;BME280;6919;52.344;14.518;2022-08-19T05:33:35;99998.94;;;22.17;100.00
13695;BME280;6919;52.344;14.518;2022-08-19T05:36:04;100001.81;;;22.11;100.00
13695;BME280;6919;52.344;14.518;2022-08-19T05:38:34;99993.00;;;22.20;100.00
13695;BME280;6919;52.344;14.518;2022-08-19T05:41:08;99998.06;;;22.28;100.00
13695;BME280;6919;52.344;14.518;2022-08-19T05:43:37;99993.69;;;22.27;100.00
13695;BME280;6919;52.344;14.518;2022-08-19T05:46:07;100005.28;;;22.34;100.00
13695;BME280;6919;52.344;14.518;2022-08-19T05:48:36;100013.47;;;22.34;100.00
13695;BME280;6919;52.344;14.518;2022-08-19T05:51:06;100014.03;;;22.36;100.00
13695;BME280;6919;52.344;14.518;2022-08-19T05:53:35;100015.44;;;22.50;100.00
13695;BME280;6919;52.344;14.518;2022-08-19T05:56:04;100007.16;;;22.34;100.00
13695;BME280;6919;52.344;14.518;2022-08-19T05:58:33;100012.59;;;22.45;100.00
13695;BME280;6919;52.344;14.518;2022-08-19T06:01:02;100016.13;;;22.57;100.00
13695;BME280;6919;52.344;14.518;2022-08-19T06:03:34;99998.72;;;22.63;100.00
13695;BME280;6919;52.344;14.518;2022-08-19T06:06:05;99997.75;;;22.69;100.00
13695;BME280;6919;52.344;14.518;2022-08-19T06:08:35;99997.50;;;22.71;100.00
13695;BME280;6919;52.344;14.518;2022-08-19T06:11:20;100001.47;;;22.63;100.00
13695;BME280;6919;52.344;14.518;2022-08-19T06:13:53;100008.75;;;22.58;100.00
13695;BME280;6919;52.344;14.518;2022-08-19T06:16:26;100005.13;;;22.69;100.00
13695;BME280;6919;52.344;14.518;2022-08-19T06:18:58;100016.56;;;22.82;100.00
13695;BME280;6919;52.344;14.518;2022-08-19T06:21:29;100015.06;;;22.75;100.00
13695;BME280;6919;52.344;14.518;2022-08-19T06:23:58;100018.72;;;22.97;100.00
13695;BME280;6919;52.344;14.518;2022-08-19T06:26:27;100015.22;;;22.85;100.00
13695;BME280;6919;52.344;14.518;2022-08-19T06:28:55;100009.13;;;22.95;100.00
13695;BME280;6919;52.344;14.518;2022-08-19T06:31:27;100009.28;;;23.05;100.00
13695;BME280;6919;52.344;14.518;2022-08-19T06:33:56;100009.25;;;22.88;100.00
13695;BME280;6919;52.344;14.518;2022-08-19T06:36:30;100018.91;;;23.07;100.00
13695;BME280;6919;52.344;14.518;2022-08-19T06:39:03;100001.22;;;23.15;100.00
13695;BME280;6919;52.344;14.518;2022-08-19T06:41:35;100003.47;;;23.18;100.00
13695;BME280;6919;52.344;14.518;2022-08-19T06:44:14;100000.97;;;23.16;100.00
13695;BME280;6919;52.344;14.518;2022-08-19T06:46:43;100010.75;;;23.12;100.00
13695;BME280;6919;52.344;14.518;2022-08-19T06:49:23;100006.28;;;23.06;100.00
13695;BME280;6919;52.344;14.518;2022-08-19T06:51:51;100018.53;;;23.04;100.00
13695;BME280;6919;52.344;14.518;2022-08-19T06:54:20;100012.94;;;23.10;100.00
13695;BME280;6919;52.344;14.518;2022-08-19T06:56:49;100016.72;;;23.26;100.00
13695;BME280;6919;52.344;14.518;2022-08-19T06:59:21;100013.31;;;23.19;100.00
13695;BME280;6919;52.344;14.518;2022-08-19T07:01:53;100021.06;;;23.22;100.00
13695;BME280;6919;52.344;14.518;2022-08-19T07:04:25;100027.19;;;23.29;100.00
13695;BME280;6919;52.344;14.518;2022-08-19T07:07:00;100024.94;;;23.26;100.00
13695;BME280;6919;52.344;14.518;2022-08-19T07:09:47;100033.31;;;23.36;100.00
13695;BME280;6919;52.344;14.518;2022-08-19T07:12:28;100024.69;;;23.44;100.00
13695;BME280;6919;52.344;14.518;2022-08-19T07:14:58;100029.97;;;23.50;100.00
13695;BME280;6919;52.344;14.518;2022-08-19T07:17:27;100031.88;;;23.50;100.00
13695;BME280;6919;52.344;14.518;2022-08-19T07:19:58;100034.22;;;23.41;100.00
13695;BME280;6919;52.344;14.518;2022-08-19T07:22:33;100023.84;;;23.43;100.00
13695;BME280;6919;52.344;14.518;2022-08-19T07:25:03;100032.91;;;23.44;100.00
13695;BME280;6919;52.344;14.518;2022-08-19T07:27:31;100031.97;;;23.55;100.00
13695;BME280;6919;52.344;14.518;2022-08-19T07:30:01;100042.47;;;23.63;100.00
13695;BME280;6919;52.344;14.518;2022-08-19T07:32:29;100032.81;;;23.77;100.00
13695;BME280;6919;52.344;14.518;2022-08-19T07:34:59;100042.53;;;23.68;100.00
13695;BME280;6919;52.344;14.518;2022-08-19T07:37:30;100041.44;;;23.85;100.00
13695;BME280;6919;52.344;14.518;2022-08-19T07:40:00;100045.72;;;23.98;100.00
13695;BME280;6919;52.344;14.518;2022-08-19T07:42:28;100045.78;;;24.03;100.00
13695;BME280;6919;52.344;14.518;2022-08-19T07:44:58;100041.81;;;24.15;100.00
13695;BME280;6919;52.344;14.518;2022-08-19T07:47:26;100044.78;;;24.09;100.00
13695;BME280;6919;52.344;14.518;2022-08-19T07:50:18;100037.59;;;24.29;100.00
13695;BME280;6919;52.344;14.518;2022-08-19T07:52:48;100034.47;;;24.42;100.00
13695;BME280;6919;52.344;14.518;2022-08-19T07:55:23;100042.16;;;24.67;100.00
13695;BME280;6919;52.344;14.518;2022-08-19T07:58:12;100042.84;;;24.79;100.00
13695;BME280;6919;52.344;14.518;2022-08-19T08:00:43;100039.63;;;24.87;100.00
13695;BME280;6919;52.344;14.518;2022-08-19T08:03:13;100039.66;;;24.92;100.00
13695;BME280;6919;52.344;14.518;2022-08-19T08:05:43;100037.59;;;25.09;100.00
13695;BME280;6919;52.344;14.518;2022-08-19T08:08:29;100035.22;;;25.54;100.00
13695;BME280;6919;52.344;14.518;2022-08-19T08:11:19;100039.69;;;25.28;100.00
13695;BME280;6919;52.344;14.518;2022-08-19T08:13:49;100044.75;;;25.41;100.00
13695;BME280;6919;52.344;14.518;2022-08-19T08:16:27;100047.28;;;25.16;100.00
13695;BME280;6919;52.344;14.518;2022-08-19T08:18:57;100043.88;;;25.31;100.00
13695;BME280;6919;52.344;14.518;2022-08-19T08:21:28;100042.47;;;25.70;100.00
13695;BME280;6919;52.344;14.518;2022-08-19T08:23:56;100042.56;;;25.85;100.00
13695;BME280;6919;52.344;14.518;2022-08-19T08:26:29;100043.69;;;25.94;100.00
13695;BME280;6919;52.344;14.518;2022-08-19T08:29:00;100040.81;;;25.69;100.00
13695;BME280;6919;52.344;14.518;2022-08-19T08:31:39;100048.78;;;25.71;100.00
13695;BME280;6919;52.344;14.518;2022-08-19T08:34:08;100054.16;;;25.51;100.00
13695;BME280;6919;52.344;14.518;2022-08-19T08:36:39;100046.63;;;25.73;100.00
13695;BME280;6919;52.344;14.518;2022-08-19T08:39:09;100051.84;;;25.74;100.00
13695;BME280;6919;52.344;14.518;2022-08-19T08:41:46;100046.69;;;25.83;100.00
13695;BME280;6919;52.344;14.518;2022-08-19T08:44:20;100051.94;;;25.94;100.00
13695;BME280;6919;52.344;14.518;2022-08-19T08:46:57;100057.25;;;26.06;100.00
13695;BME280;6919;52.344;14.518;2022-08-19T08:49:33;100060.69;;;26.48;100.00
13695;BME280;6919;52.344;14.518;2022-08-19T08:52:11;100051.09;;;26.55;100.00
13695;BME280;6919;52.344;14.518;2022-08-19T08:54:46;100055.81;;;26.60;100.00
13695;BME280;6919;52.344;14.518;2022-08-19T08:57:29;100045.66;;;25.99;100.00
13695;BME280;6919;52.344;14.518;2022-08-19T09:00:14;100056.03;;;25.92;100.00
13695;BME280;6919;52.344;14.518;2022-08-19T09:02:43;100061.06;;;26.00;100.00
13695;BME280;6919;52.344;14.518;2022-08-19T09:05:17;100058.66;;;26.18;100.00
13695;BME280;6919;52.344;14.518;2022-08-19T09:07:59;100062.91;;;25.94;100.00
13695;BME280;6919;52.344;14.518;2022-08-19T09:10:37;100070.03;;;25.90;100.00
13695;BME280;6919;52.344;14.518;2022-08-19T09:13:28;100068.75;;;25.98;100.00
13695;BME280;6919;52.344;14.518;2022-08-19T09:16:07;100066.19;;;26.43;100.00
13695;BME280;6919;52.344;14.518;2022-08-19T09:18:45;100071.34;;;26.24;100.00
13695;BME280;6919;52.344;14.518;2022-08-19T09:21:16;100068.56;;;26.19;100.00
13695;BME280;6919;52.344;14.518;2022-08-19T09:23:49;100063.34;;;25.71;100.00
13695;BME280;6919;52.344;14.518;2022-08-19T09:26:21;100056.81;;;26.29;100.00
13695;BME280;6919;52.344;14.518;2022-08-19T09:29:09;100057.78;;;26.03;100.00
13695;BME280;6919;52.344;14.518;2022-08-19T09:31:38;100049.16;;;25.84;100.00
13695;BME280;6919;52.344;14.518;2022-08-19T09:34:06;100062.78;;;26.21;100.00
13695;BME280;6919;52.344;14.518;2022-08-19T09:36:47;100061.25;;;26.45;100.00
13695;BME280;6919;52.344;14.518;2022-08-19T09:39:22;100068.53;;;27.11;100.00
13695;BME280;6919;52.344;14.518;2022-08-19T09:42:02;100069.63;;;27.75;100.00
13695;BME280;6919;52.344;14.518;2022-08-19T09:44:43;100070.16;;;27.77;100.00
13695;BME280;6919;52.344;14.518;2022-08-19T09:47:13;100075.16;;;27.15;100.00
13695;BME280;6919;52.344;14.518;2022-08-19T09:49:45;100074.28;;;26.79;100.00
13695;BME280;6919;52.344;14.518;2022-08-19T09:52:15;100072.03;;;26.61;100.00
13695;BME280;6919;52.344;14.518;2022-08-19T09:54:46;100070.53;;;26.29;100.00
13695;BME280;6919;52.344;14.518;2022-08-19T09:57:17;100052.06;;;26.14;100.00
13695;BME280;6919;52.344;14.518;2022-08-19T09:59:46;100059.97;;;26.82;100.00
13695;BME280;6919;52.344;14.518;2022-08-19T10:02:15;100060.50;;;26.79;100.00
13695;BME280;6919;52.344;14.518;2022-08-19T10:04:48;100061.09;;;27.16;100.00
13695;BME280;6919;52.344;14.518;2022-08-19T10:07:35;100058.56;;;27.80;100.00
13695;BME280;6919;52.344;14.518;2022-08-19T10:10:07;100052.28;;;27.59;100.00
13695;BME280;6919;52.344;14.518;2022-08-19T10:12:36;100059.47;;;27.40;100.00
13695;BME280;6919;52.344;14.518;2022-08-19T10:15:06;100064.69;;;26.97;100.00
13695;BME280;6919;52.344;14.518;2022-08-19T10:17:35;100061.59;;;26.68;100.00
13695;BME280;6919;52.344;14.518;2022-08-19T10:20:05;100058.84;;;26.63;100.00
13695;BME280;6919;52.344;14.518;2022-08-19T10:22:38;100060.72;;;26.58;100.00
13695;BME280;6919;52.344;14.518;2022-08-19T10:25:11;100056.97;;;26.99;100.00
13695;BME280;6919;52.344;14.518;2022-08-19T10:27:45;100060.13;;;26.46;100.00
13695;BME280;6919;52.344;14.518;2022-08-19T10:30:18;100058.75;;;26.43;100.00
13695;BME280;6919;52.344;14.518;2022-08-19T10:32:51;100060.66;;;25.81;100.00
13695;BME280;6919;52.344;14.518;2022-08-19T10:35:21;100055.72;;;25.83;100.00
13695;BME280;6919;52.344;14.518;2022-08-19T10:37:54;100050.41;;;26.13;100.00
13695;BME280;6919;52.344;14.518;2022-08-19T10:40:30;100051.84;;;25.79;100.00
13695;BME280;6919;52.344;14.518;2022-08-19T10:42:59;100055.72;;;25.78;100.00
13695;BME280;6919;52.344;14.518;2022-08-19T10:45:28;100065.63;;;25.84;100.00
13695;BME280;6919;52.344;14.518;2022-08-19T10:47:57;100058.13;;;26.21;100.00
13695;BME280;6919;52.344;14.518;2022-08-19T10:50:25;100051.72;;;26.62;100.00
13695;BME280;6919;52.344;14.518;2022-08-19T10:53:12;100061.66;;;26.83;100.00
13695;BME280;6919;52.344;14.518;2022-08-19T10:55:44;100063.84;;;26.81;100.00
13695;BME280;6919;52.344;14.518;2022-08-19T10:58:30;100063.19;;;26.54;100.00
13695;BME280;6919;52.344;14.518;2022-08-19T11:01:00;100070.34;;;25.94;100.00
13695;BME280;6919;52.344;14.518;2022-08-19T11:03:29;100062.75;;;26.06;100.00
13695;BME280;6919;52.344;14.518;2022-08-19T11:06:01;100061.88;;;26.00;100.00
13695;BME280;6919;52.344;14.518;2022-08-19T11:08:32;100059.41;;;26.75;100.00
13695;BME280;6919;52.344;14.518;2022-08-19T11:11:06;100059.97;;;26.77;100.00
13695;BME280;6919;52.344;14.518;2022-08-19T11:13:39;100067.44;;;26.97;100.00
13695;BME280;6919;52.344;14.518;2022-08-19T11:16:12;100069.13;;;27.43;100.00
13695;BME280;6919;52.344;14.518;2022-08-19T11:18:47;100071.53;;;27.74;100.00
13695;BME280;6919;52.344;14.518;2022-08-19T11:21:21;100065.03;;;28.44;100.00
13695;BME280;6919;52.344;14.518;2022-08-19T11:23:54;100082.16;;;28.26;100.00
13695;BME280;6919;52.344;14.518;2022-08-19T11:26:26;100097.50;;;27.43;100.00
13695;BME280;6919;52.344;14.518;2022-08-19T11:28:57;100084.56;;;27.24;100.00
13695;BME280;6919;52.344;14.518;2022-08-19T11:31:29;100094.94;;;27.82;100.00
13695;BME280;6919;52.344;14.518;2022-08-19T11:34:03;100103.69;;;28.19;100.00
13695;BME280;6919;52.344;14.518;2022-08-19T11:36:34;100104.59;;;26.99;100.00
13695;BME280;6919;52.344;14.518;2022-08-19T11:39:16;100099.38;;;27.18;100.00
13695;BME280;6919;52.344;14.518;2022-08-19T11:41:47;100107.38;;;27.79;100.00
13695;BME280;6919;52.344;14.518;2022-08-19T11:44:22;100105.09;;;28.12;100.00
13695;BME280;6919;52.344;14.518;2022-08-19T11:46:59;100098.31;;;27.34;100.00
13695;BME280;6919;52.344;14.518;2022-08-19T11:49:35;100101.84;;;27.14;100.00
13695;BME280;6919;52.344;14.518;2022-08-19T11:52:05;100111.94;;;26.74;100.00
13695;BME280;6919;52.344;14.518;2022-08-19T11:54:37;100110.91;;;27.05;100.00
13695;BME280;6919;52.344;14.518;2022-08-19T11:57:13;100117.03;;;27.27;100.00
13695;BME280;6919;52.344;14.518;2022-08-19T11:59:52;100112.66;;;27.31;100.00
13695;BME280;6919;52.344;14.518;2022-08-19T12:02:21;100116.75;;;27.53;100.00
13695;BME280;6919;52.344;14.518;2022-08-19T12:04:51;100119.50;;;27.23;100.00
13695;BME280;6919;52.344;14.518;2022-08-19T12:07:20;100122.25;;;27.58;100.00
13695;BME280;6919;52.344;14.518;2022-08-19T12:09:52;100123.03;;;27.09;100.00
13695;BME280;6919;52.344;14.518;2022-08-19T12:12:28;100126.66;;;27.49;100.00
13695;BME280;6919;52.344;14.518;2022-08-19T12:15:00;100133.00;;;27.45;100.00
13695;BME280;6919;52.344;14.518;2022-08-19T12:17:31;100129.44;;;27.89;100.00
13695;BME280;6919;52.344;14.518;2022-08-19T12:20:05;100133.25;;;28.03;100.00
13695;BME280;6919;52.344;14.518;2022-08-19T12:22:35;100129.09;;;27.16;100.00
13695;BME280;6919;52.344;14.518;2022-08-19T12:25:09;100130.16;;;26.90;100.00
13695;BME280;6919;52.344;14.518;2022-08-19T12:27:47;100141.56;;;27.48;100.00
13695;BME280;6919;52.344;14.518;2022-08-19T12:30:24;100140.41;;;27.19;100.00
13695;BME280;6919;52.344;14.518;2022-08-19T12:32:55;100141.81;;;27.57;100.00
13695;BME280;6919;52.344;14.518;2022-08-19T12:35:25;100150.34;;;28.05;100.00
13695;BME280;6919;52.344;14.518;2022-08-19T12:38:02;100139.63;;;27.89;100.00
13695;BME280;6919;52.344;14.518;2022-08-19T12:40:33;100145.38;;;27.67;100.00
13695;BME280;6919;52.344;14.518;2022-08-19T12:43:03;100153.13;;;27.50;100.00
13695;BME280;6919;52.344;14.518;2022-08-19T12:45:34;100142.47;;;26.62;100.00
13695;BME280;6919;52.344;14.518;2022-08-19T12:48:08;100147.91;;;26.52;100.00
13695;BME280;6919;52.344;14.518;2022-08-19T12:50:58;100148.84;;;26.83;100.00
13695;BME280;6919;52.344;14.518;2022-08-19T12:53:28;100150.41;;;26.07;100.00
13695;BME280;6919;52.344;14.518;2022-08-19T12:56:01;100145.69;;;25.98;100.00
13695;BME280;6919;52.344;14.518;2022-08-19T12:58:36;100142.22;;;26.17;100.00
13695;BME280;6919;52.344;14.518;2022-08-19T13:01:11;100150.03;;;26.35;100.00
13695;BME280;6919;52.344;14.518;2022-08-19T13:03:46;100141.66;;;26.67;100.00
13695;BME280;6919;52.344;14.518;2022-08-19T13:06:17;100148.91;;;27.03;100.00
13695;BME280;6919;52.344;14.518;2022-08-19T13:08:46;100145.88;;;26.33;100.00
13695;BME280;6919;52.344;14.518;2022-08-19T13:11:31;100148.84;;;26.16;100.00